Hawaii METAR Reports

 

PHOG - Kahului, Hawaii, USA
Distance from station: WNW 8mi, 13km
Updated: Wed, 01-Dec-2021 1:54pm HST
Few Clouds
Few Clouds
 Wind from NE
Wind: NE 18 mph , 30 km/h, Gust: 26 mph , 43 km/h
Temperature: 84°F , 29°C
Heat Index: 85°F , 29°C
Dew Point: 64°F , 18°C
Humidity: 51%
Barometer: 29.89 inHg , 1012.2 hPa
Clouds: Few Clouds
Visibility: 10 miles , 16 km
Cloud details: Few Clouds 2000 ft
Few Clouds 4500 ft
2021/12/01 23:54 PHOG 012354Z 05016G23KT 10SM FEW020 FEW045 29/18 A2989 RMK AO2 PK WND 07026/2324 SLP126 T02890183 10300 20222 58025
PHJH - Lahaina/West Mau, Hawaii, USA
Distance from station: WNW 24mi, 39km
Updated: Wed, 15-Sep-2021 1:45pm HST
NOT Current
Partly Cloudy
Partly Cloudy
 Wind from NE
Wind: NE 17 mph , 28 km/h
Temperature: 84°F , 29°C
Heat Index: 87°F , 31°C
Dew Point: 68°F , 20°C
Humidity: 58%
Barometer: 29.96 inHg , 1014.6 hPa
Clouds: Partly Cloudy
Visibility: 10 miles , 16 km
Cloud details: Partly Cloudy 4500 ft
2021/09/15 23:45 PHJH 152345Z 05015KT 10SM SCT045 29/20 A2996
 
PHNY - Lanai City Airpo, Hawaii, USA
Distance from station: W 40mi, 65km
Updated: Wed, 01-Dec-2021 2:13pm HST
Mostly Cloudy
Mostly Cloudy
 Wind from SSE
Wind: SSE 12 mph , 19 km/h, Gust: 17 mph , 28 km/h
Temperature: 81°F , 27°C
Heat Index: 83°F , 28°C
Dew Point: 66°F , 19°C
Humidity: 62%
Barometer: 29.96 inHg , 1014.6 hPa
Clouds: Mostly Cloudy
Visibility: 10 miles , 16 km
Cloud details: Mostly Cloudy 2700 ft
Mostly Cloudy 3200 ft
2021/12/02 00:13 PHNY 020013Z AUTO 16010G15KT 130V190 10SM BKN027 BKN032 27/19 A2996 RMK AO2
PHMK - Molokai, Hawaii, USA
Distance from station: WNW 55mi, 88km
Updated: Wed, 01-Dec-2021 1:54pm HST
Mostly Cloudy
Mostly Cloudy
 Wind from NNE
Wind: NNE 9 mph , 15 km/h
Temperature: 81°F , 27°C
Heat Index: 83°F , 28°C
Dew Point: 66°F , 19°C
Humidity: 62%
Barometer: 29.92 inHg , 1013.2 hPa
Clouds: Mostly Cloudy
Visibility: 10 miles , 16 km
Cloud details: Few Clouds 4000 ft
Partly Cloudy 5000 ft
Mostly Cloudy 6000 ft
2021/12/01 23:54 PHMK 012354Z 02008KT 10SM FEW040 SCT050 BKN060 27/19 A2992 RMK AO2 SLP132 T02670194 10294 20233 56023
 
PHKO - Kailua/Kona, Hawaii, USA
Distance from station: SSE 79mi, 128km
Updated: Wed, 01-Dec-2021 1:53pm HST
Mostly Cloudy
Mostly Cloudy
 Wind from W
Wind: W 12 mph , 19 km/h
Temperature: 82°F , 28°C
Heat Index: 85°F , 29°C
Dew Point: 68°F , 20°C
Humidity: 62%
Barometer: 29.88 inHg , 1011.9 hPa
Clouds: Mostly Cloudy
Visibility: 10 miles , 16 km
Cloud details: Few Clouds 6000 ft
Mostly Cloudy 10000 ft
2021/12/01 23:53 PHKO 012353Z 28010KT 10SM FEW060 BKN100 28/20 A2988 RMK AO2 SLP117 60000 T02830200 10283 20233 56030
PHSF - Bradshaw Aaf/Haw, Hawaii, USA
Distance from station: SE 90mi, 145km
Updated: Wed, 01-Dec-2021 2:28pm HST
Mostly Cloudy
Mostly Cloudy
 Wind from calm
Wind: Calm
Temperature: 57°F , 14°C
Dew Point: 52°F , 11°C
Humidity: 82%
Barometer: 30.22 inHg , 1023.4 hPa
Clouds: Mostly Cloudy
Visibility: 10 miles , 16 km
Cloud details: Partly Cloudy 1400 ft
Mostly Cloudy 4400 ft
Mostly Cloudy 7000 ft
2021/12/02 00:28 PHSF 020028Z AUTO 00000KT 10SM SCT014 BKN044 BKN070 14/11 A3022 RMK AO2 SLP127 $
 
PHNG - Kaneohe Mcas, Hawaii, USA
Distance from station: WNW 102mi, 164km
Updated: Wed, 01-Dec-2021 2:28pm HST
Mostly Cloudy
Mostly Cloudy
 Wind from ENE
Wind: ENE 13 mph , 20 km/h, Gust: 18 mph , 30 km/h
Temperature: 81°F , 27°C
Heat Index: 85°F , 29°C
Dew Point: 70°F , 21°C
Humidity: 70%
Barometer: 29.90 inHg , 1012.5 hPa
Clouds: Mostly Cloudy
Visibility: 10 miles , 16 km
Cloud details: Mostly Cloudy 2200 ft
Mostly Cloudy 2600 ft
2021/12/02 00:28 PHNG 020028Z 07011G16KT 10SM BKN022 BKN026 27/21 A2990 RMK AO2 T02720211 $
PHNL - Honolulu, Hawaii, USA
Distance from station: WNW 108mi, 174km
Updated: Wed, 01-Dec-2021 1:53pm HST
Light rain, Mostly cloudy
Light rain, Mostly cloudy
 Wind from E
Wind: E 5 mph , 7 km/h
Temperature: 79°F , 26°C
Dew Point: 64°F , 18°C
Humidity: 61%
Barometer: 29.91 inHg , 1012.9 hPa
Summary: Light Rain
Clouds: Mostly Cloudy
Visibility: 10 miles , 16 km
Cloud details: Partly Cloudy 3200 ft
Partly Cloudy 5500 ft
Mostly Cloudy 8000 ft
2021/12/01 23:53 PHNL 012353Z 10004KT 10SM -RA SCT032 SCT055 BKN080 26/18 A2991 RMK AO2 RAB43 SLP129 P0000 60000 T02610183 10300 20250 56021
 
PHTO - Hilo, Hawaii, USA
Distance from station: SE 114mi, 183km
Updated: Wed, 01-Dec-2021 1:53pm HST
Few Clouds
Few Clouds
 Wind from calm
Wind: Calm
Temperature: 75°F , 24°C
Dew Point: 70°F , 21°C
Humidity: 83%
Barometer: 29.92 inHg , 1013.2 hPa
Clouds: Few Clouds
Visibility: 10 miles , 16 km
Cloud details: Few Clouds 12000 ft
2021/12/01 23:53 PHTO 012353Z 00000KT 10SM FEW120 24/21 A2992 RMK AO2 SLP130 60024 T02440206 10244 20217 56029
PHJR - Kalaeloa, Hawaii, USA
Distance from station: WNW 117mi, 189km
Updated: Wed, 01-Dec-2021 1:53pm HST
Clear
Clear
 Wind from ESE
Wind: ESE 15 mph , 24 km/h, Gust: 22 mph , 35 km/h
Temperature: 86°F , 30°C
Heat Index: 89°F , 32°C
Dew Point: 68°F , 20°C
Humidity: 55%
Barometer: 29.92 inHg , 1013.2 hPa
Clouds: Clear
Visibility: 10 miles , 16 km
2021/12/01 23:53 PHJR 012353Z 11013G19KT 10SM CLR 30/20 A2992 RMK AO2 SLP139 T03000200 10311 20256 56024
 
PHHI - Wheeler Afb/Oahu, Hawaii, USA
Distance from station: WNW 120mi, 193km
Updated: Wed, 01-Dec-2021 2:05pm HST
Few Clouds
Few Clouds
 Wind from ENE
Wind: ENE 14 mph , 22 km/h
Temperature: 79°F , 26°C
Dew Point: 63°F , 17°C
Humidity: 58%
Barometer: 29.94 inHg , 1013.9 hPa
Clouds: Few Clouds
Visibility: 10 miles , 16 km
Cloud details: Few Clouds 3200 ft
2021/12/02 00:05 PHHI 020005Z AUTO 07012KT 10SM FEW032 26/17 A2994 RMK AO2 WSHFT 2358 SLP129 $
PHLI - Lihue/Kauai Is, Hawaii, USA
Distance from station: WNW 209mi, 336km
Updated: Wed, 01-Dec-2021 1:53pm HST
Partly Cloudy
Partly Cloudy
 Wind from ENE
Wind: ENE 15 mph , 24 km/h
Temperature: 81°F , 27°C
Heat Index: 85°F , 29°C
Dew Point: 72°F , 22°C
Humidity: 74%
Barometer: 29.95 inHg , 1014.2 hPa
Clouds: Partly Cloudy
Visibility: 10 miles , 16 km
Cloud details: Few Clouds 1900 ft
Partly Cloudy 3200 ft
Partly Cloudy 4400 ft
2021/12/01 23:53 PHLI 012353Z 06013KT 10SM FEW019 SCT032 SCT044 27/22 A2995 RMK AO2 SLP139 T02670217 10283 20256 56019
 
PHBK - Barking Sands/Ka, Hawaii, USA
Distance from station: WNW 237mi, 382km
Updated: Wed, 01-Dec-2021 2:51pm HST
Few Clouds
Few Clouds
 Wind from W
Wind: W 10 mph , 17 km/h
Temperature: 84°F , 29°C
Heat Index: 87°F , 31°C
Dew Point: 68°F , 20°C
Humidity: 58%
Barometer: 29.89 inHg , 1012.2 hPa
Clouds: Few Clouds
Visibility: 9 miles , 14 km
Cloud details: Few Clouds 4800 ft
2021/12/02 00:51 PHBK 020051Z AUTO 27009KT 9SM FEW048 29/20 A2989 RMK AO2 SLP122 T02890200